Zephyrhills, Florida
Current Conditions -  °F | °C
As of 6:15 AM on Wednesday 26 Nov 2014 (Local Time) from KZPH Reporting Station
Moderate Rain Moderate Rain  
Wind Chill: 52°   Ceiling: 3300
Heat Index: 52°   Visibility: 10mi
Dew Point: 50°   Wind: 13mph
Humidity: 94%   Direction: 360°N
Pressure: 30.02"   Gusts: NA
Location:  28.23°N, 82.18°W
Report Text: KZPH 261115Z AUTO 36011KT 10SM RA SCT009 BKN033 OVC045 11/10 A3002 RMK AO2 P0001
Loading
Personal Weather Stations






























Interactive Weather Map New forecast layout! Learn more

10-Day Weather Forecast

Advertisements
Track Severe Weather on mobile